sensor_id;sensor_type;location;lat;lon;timestamp;temperature;humidity
3330;DHT22;1677;49.576;10.990;2022-12-24T00:02:07;11.20;99.90
3330;DHT22;1677;49.576;10.990;2022-12-24T00:04:33;11.60;99.90
3330;DHT22;1677;49.576;10.990;2022-12-24T00:06:58;11.30;99.90
3330;DHT22;1677;49.576;10.990;2022-12-24T00:09:24;11.30;99.90
3330;DHT22;1677;49.576;10.990;2022-12-24T00:11:49;11.30;99.90
3330;DHT22;1677;49.576;10.990;2022-12-24T00:14:15;11.30;99.90
3330;DHT22;1677;49.576;10.990;2022-12-24T00:16:40;11.40;99.90
3330;DHT22;1677;49.576;10.990;2022-12-24T00:19:06;11.30;99.90
3330;DHT22;1677;49.576;10.990;2022-12-24T00:21:31;11.20;99.90
3330;DHT22;1677;49.576;10.990;2022-12-24T00:23:57;11.20;99.90
3330;DHT22;1677;49.576;10.990;2022-12-24T00:26:22;11.30;99.90
3330;DHT22;1677;49.576;10.990;2022-12-24T00:28:48;11.30;99.90
3330;DHT22;1677;49.576;10.990;2022-12-24T00:31:16;11.30;99.90
3330;DHT22;1677;49.576;10.990;2022-12-24T00:33:44;11.20;99.90
3330;DHT22;1677;49.576;10.990;2022-12-24T00:36:10;11.20;99.90
3330;DHT22;1677;49.576;10.990;2022-12-24T00:38:36;11.10;99.90
3330;DHT22;1677;49.576;10.990;2022-12-24T00:41:04;11.00;99.90
3330;DHT22;1677;49.576;10.990;2022-12-24T00:43:30;10.90;99.90
3330;DHT22;1677;49.576;10.990;2022-12-24T00:45:56;11.00;99.90
3330;DHT22;1677;49.576;10.990;2022-12-24T00:48:22;10.90;99.90
3330;DHT22;1677;49.576;10.990;2022-12-24T00:50:49;11.00;99.90
3330;DHT22;1677;49.576;10.990;2022-12-24T00:53:15;10.90;99.90
3330;DHT22;1677;49.576;10.990;2022-12-24T00:55:41;11.00;99.90
3330;DHT22;1677;49.576;10.990;2022-12-24T00:58:06;11.00;99.90
3330;DHT22;1677;49.576;10.990;2022-12-24T01:00:32;10.80;99.90
3330;DHT22;1677;49.576;10.990;2022-12-24T01:02:57;10.90;99.90
3330;DHT22;1677;49.576;10.990;2022-12-24T01:05:23;10.80;99.90
3330;DHT22;1677;49.576;10.990;2022-12-24T01:07:48;10.80;99.90
3330;DHT22;1677;49.576;10.990;2022-12-24T01:10:17;11.00;99.90
3330;DHT22;1677;49.576;10.990;2022-12-24T01:12:43;10.90;99.90
3330;DHT22;1677;49.576;10.990;2022-12-24T01:15:11;10.90;99.90
3330;DHT22;1677;49.576;10.990;2022-12-24T01:17:37;10.90;99.90
3330;DHT22;1677;49.576;10.990;2022-12-24T01:20:04;10.80;99.90
3330;DHT22;1677;49.576;10.990;2022-12-24T01:22:30;10.80;99.90
3330;DHT22;1677;49.576;10.990;2022-12-24T01:24:56;10.90;99.90
3330;DHT22;1677;49.576;10.990;2022-12-24T01:27:22;11.10;99.90
3330;DHT22;1677;49.576;10.990;2022-12-24T01:29:47;11.20;99.90
3330;DHT22;1677;49.576;10.990;2022-12-24T01:32:13;11.20;99.90
3330;DHT22;1677;49.576;10.990;2022-12-24T01:34:38;11.30;99.90
3330;DHT22;1677;49.576;10.990;2022-12-24T01:37:04;11.20;99.90
3330;DHT22;1677;49.576;10.990;2022-12-24T01:39:30;11.20;99.90
3330;DHT22;1677;49.576;10.990;2022-12-24T01:41:55;11.10;99.90
3330;DHT22;1677;49.576;10.990;2022-12-24T01:44:42;11.10;99.90
3330;DHT22;1677;49.576;10.990;2022-12-24T01:47:24;11.10;99.90
3330;DHT22;1677;49.576;10.990;2022-12-24T01:49:56;10.90;99.90
3330;DHT22;1677;49.576;10.990;2022-12-24T01:52:30;10.80;99.90
3330;DHT22;1677;49.576;10.990;2022-12-24T01:55:07;10.80;99.90
3330;DHT22;1677;49.576;10.990;2022-12-24T01:57:41;10.80;99.90
3330;DHT22;1677;49.576;10.990;2022-12-24T02:00:10;10.70;99.90
3330;DHT22;1677;49.576;10.990;2022-12-24T02:02:39;10.60;99.90
3330;DHT22;1677;49.576;10.990;2022-12-24T02:07:40;10.50;99.90
3330;DHT22;1677;49.576;10.990;2022-12-24T02:10:09;10.40;99.90
3330;DHT22;1677;49.576;10.990;2022-12-24T02:12:35;10.30;99.90
3330;DHT22;1677;49.576;10.990;2022-12-24T02:15:03;10.30;99.90
3330;DHT22;1677;49.576;10.990;2022-12-24T02:26:26;9.90;99.90
3330;DHT22;1677;49.576;10.990;2022-12-24T02:31:41;10.00;99.90
3330;DHT22;1677;49.576;10.990;2022-12-24T02:34:15;9.90;99.90
3330;DHT22;1677;49.576;10.990;2022-12-24T02:36:59;10.00;99.90
3330;DHT22;1677;49.576;10.990;2022-12-24T02:39:42;9.80;99.90
3330;DHT22;1677;49.576;10.990;2022-12-24T02:42:11;9.70;99.90
3330;DHT22;1677;49.576;10.990;2022-12-24T02:47:09;9.70;99.90
3330;DHT22;1677;49.576;10.990;2022-12-24T02:49:36;9.60;99.90
3330;DHT22;1677;49.576;10.990;2022-12-24T02:52:02;9.60;99.90
3330;DHT22;1677;49.576;10.990;2022-12-24T02:54:28;9.60;99.90
3330;DHT22;1677;49.576;10.990;2022-12-24T02:59:48;9.90;99.90
3330;DHT22;1677;49.576;10.990;2022-12-24T03:04:59;9.80;99.90
3330;DHT22;1677;49.576;10.990;2022-12-24T03:07:43;10.00;99.90
3330;DHT22;1677;49.576;10.990;2022-12-24T03:10:17;9.90;99.90
3330;DHT22;1677;49.576;10.990;2022-12-24T03:12:52;9.80;99.90
3330;DHT22;1677;49.576;10.990;2022-12-24T03:15:20;9.80;99.90
3330;DHT22;1677;49.576;10.990;2022-12-24T03:17:49;9.60;99.90
3330;DHT22;1677;49.576;10.990;2022-12-24T03:20:21;9.80;99.90
3330;DHT22;1677;49.576;10.990;2022-12-24T03:22:49;9.80;99.90
3330;DHT22;1677;49.576;10.990;2022-12-24T03:25:15;9.80;99.90
3330;DHT22;1677;49.576;10.990;2022-12-24T03:27:41;9.70;99.90
3330;DHT22;1677;49.576;10.990;2022-12-24T03:30:10;9.50;99.90
3330;DHT22;1677;49.576;10.990;2022-12-24T03:32:37;9.60;99.90
3330;DHT22;1677;49.576;10.990;2022-12-24T03:35:03;9.60;99.90
3330;DHT22;1677;49.576;10.990;2022-12-24T03:37:29;9.50;99.90
3330;DHT22;1677;49.576;10.990;2022-12-24T03:39:54;9.50;99.90
3330;DHT22;1677;49.576;10.990;2022-12-24T03:42:20;9.50;99.90
3330;DHT22;1677;49.576;10.990;2022-12-24T03:44:45;9.40;99.90
3330;DHT22;1677;49.576;10.990;2022-12-24T03:47:11;9.30;99.90
3330;DHT22;1677;49.576;10.990;2022-12-24T03:49:36;9.20;99.90
3330;DHT22;1677;49.576;10.990;2022-12-24T03:52:02;9.20;99.90
3330;DHT22;1677;49.576;10.990;2022-12-24T03:54:28;9.20;99.90
3330;DHT22;1677;49.576;10.990;2022-12-24T03:56:53;9.20;99.90
3330;DHT22;1677;49.576;10.990;2022-12-24T03:59:19;9.20;99.90
3330;DHT22;1677;49.576;10.990;2022-12-24T04:01:44;9.30;99.90
3330;DHT22;1677;49.576;10.990;2022-12-24T04:04:10;9.40;99.90
3330;DHT22;1677;49.576;10.990;2022-12-24T04:06:35;9.50;99.90
3330;DHT22;1677;49.576;10.990;2022-12-24T04:09:02;9.40;99.90
3330;DHT22;1677;49.576;10.990;2022-12-24T04:11:29;9.40;99.90
3330;DHT22;1677;49.576;10.990;2022-12-24T04:13:55;9.50;99.90
3330;DHT22;1677;49.576;10.990;2022-12-24T04:16:21;9.50;99.90
3330;DHT22;1677;49.576;10.990;2022-12-24T04:18:46;9.40;99.90
3330;DHT22;1677;49.576;10.990;2022-12-24T04:21:12;9.20;99.90
3330;DHT22;1677;49.576;10.990;2022-12-24T04:23:38;9.40;99.90
3330;DHT22;1677;49.576;10.990;2022-12-24T04:26:06;9.50;99.90
3330;DHT22;1677;49.576;10.990;2022-12-24T04:28:32;9.50;99.90
3330;DHT22;1677;49.576;10.990;2022-12-24T04:30:59;9.60;99.90
3330;DHT22;1677;49.576;10.990;2022-12-24T04:33:25;9.50;99.90
3330;DHT22;1677;49.576;10.990;2022-12-24T04:35:50;9.50;99.90
3330;DHT22;1677;49.576;10.990;2022-12-24T04:38:16;9.60;99.90
3330;DHT22;1677;49.576;10.990;2022-12-24T04:40:42;9.50;99.90
3330;DHT22;1677;49.576;10.990;2022-12-24T04:43:07;9.50;99.90
3330;DHT22;1677;49.576;10.990;2022-12-24T04:45:33;9.50;99.90
3330;DHT22;1677;49.576;10.990;2022-12-24T04:47:58;9.50;99.90
3330;DHT22;1677;49.576;10.990;2022-12-24T04:50:24;9.50;99.90
3330;DHT22;1677;49.576;10.990;2022-12-24T04:52:49;9.50;99.90
3330;DHT22;1677;49.576;10.990;2022-12-24T04:55:15;9.50;99.90
3330;DHT22;1677;49.576;10.990;2022-12-24T04:57:40;9.80;99.90
3330;DHT22;1677;49.576;10.990;2022-12-24T05:00:07;9.70;99.90
3330;DHT22;1677;49.576;10.990;2022-12-24T05:02:32;9.60;99.90
3330;DHT22;1677;49.576;10.990;2022-12-24T05:04:58;9.70;99.90
3330;DHT22;1677;49.576;10.990;2022-12-24T05:07:23;9.80;99.90
3330;DHT22;1677;49.576;10.990;2022-12-24T05:09:49;9.70;99.90
3330;DHT22;1677;49.576;10.990;2022-12-24T05:12:14;9.80;99.90
3330;DHT22;1677;49.576;10.990;2022-12-24T05:14:40;9.70;99.90
3330;DHT22;1677;49.576;10.990;2022-12-24T05:17:06;9.80;99.90
3330;DHT22;1677;49.576;10.990;2022-12-24T05:19:32;9.80;99.90
3330;DHT22;1677;49.576;10.990;2022-12-24T05:21:57;9.90;99.90
3330;DHT22;1677;49.576;10.990;2022-12-24T05:24:41;9.70;99.90
3330;DHT22;1677;49.576;10.990;2022-12-24T05:27:25;9.60;99.90
3330;DHT22;1677;49.576;10.990;2022-12-24T05:29:51;9.60;99.90
3330;DHT22;1677;49.576;10.990;2022-12-24T05:32:16;9.50;99.90
3330;DHT22;1677;49.576;10.990;2022-12-24T05:34:42;9.50;99.90
3330;DHT22;1677;49.576;10.990;2022-12-24T05:37:07;9.60;99.90
3330;DHT22;1677;49.576;10.990;2022-12-24T05:39:33;9.60;99.90
3330;DHT22;1677;49.576;10.990;2022-12-24T05:41:58;9.70;99.90
3330;DHT22;1677;49.576;10.990;2022-12-24T05:44:24;9.70;99.90
3330;DHT22;1677;49.576;10.990;2022-12-24T05:46:49;9.80;99.90
3330;DHT22;1677;49.576;10.990;2022-12-24T05:49:15;9.60;99.90
3330;DHT22;1677;49.576;10.990;2022-12-24T05:51:41;9.70;99.90
3330;DHT22;1677;49.576;10.990;2022-12-24T05:54:06;9.60;99.90
3330;DHT22;1677;49.576;10.990;2022-12-24T05:56:32;9.50;99.90
3330;DHT22;1677;49.576;10.990;2022-12-24T05:58:57;9.60;99.90
3330;DHT22;1677;49.576;10.990;2022-12-24T06:01:24;9.60;99.90
3330;DHT22;1677;49.576;10.990;2022-12-24T06:03:51;9.50;99.90
3330;DHT22;1677;49.576;10.990;2022-12-24T06:06:19;9.60;99.90
3330;DHT22;1677;49.576;10.990;2022-12-24T06:08:46;9.60;99.90
3330;DHT22;1677;49.576;10.990;2022-12-24T06:11:14;9.60;99.90
3330;DHT22;1677;49.576;10.990;2022-12-24T06:13:41;9.70;99.90
3330;DHT22;1677;49.576;10.990;2022-12-24T06:16:10;9.80;99.90
3330;DHT22;1677;49.576;10.990;2022-12-24T06:18:36;9.70;99.90
3330;DHT22;1677;49.576;10.990;2022-12-24T06:21:03;9.60;99.90
3330;DHT22;1677;49.576;10.990;2022-12-24T06:23:33;9.60;99.90
3330;DHT22;1677;49.576;10.990;2022-12-24T06:26:00;9.60;99.90
3330;DHT22;1677;49.576;10.990;2022-12-24T06:28:27;9.60;99.90
3330;DHT22;1677;49.576;10.990;2022-12-24T06:30:53;9.60;99.90
3330;DHT22;1677;49.576;10.990;2022-12-24T06:33:18;9.60;99.90
3330;DHT22;1677;49.576;10.990;2022-12-24T06:35:45;9.60;99.90
3330;DHT22;1677;49.576;10.990;2022-12-24T06:38:10;9.60;99.90
3330;DHT22;1677;49.576;10.990;2022-12-24T06:40:40;9.50;99.90
3330;DHT22;1677;49.576;10.990;2022-12-24T06:43:06;9.50;99.90
3330;DHT22;1677;49.576;10.990;2022-12-24T06:45:32;9.60;99.90
3330;DHT22;1677;49.576;10.990;2022-12-24T06:47:58;9.70;99.90
3330;DHT22;1677;49.576;10.990;2022-12-24T06:50:24;9.80;99.90
3330;DHT22;1677;49.576;10.990;2022-12-24T06:52:49;9.70;99.90
3330;DHT22;1677;49.576;10.990;2022-12-24T06:55:15;9.60;99.90
3330;DHT22;1677;49.576;10.990;2022-12-24T06:57:40;9.70;99.90
3330;DHT22;1677;49.576;10.990;2022-12-24T07:00:08;9.80;99.90
3330;DHT22;1677;49.576;10.990;2022-12-24T07:02:33;9.80;99.90
3330;DHT22;1677;49.576;10.990;2022-12-24T07:04:59;9.80;99.90
3330;DHT22;1677;49.576;10.990;2022-12-24T07:07:24;9.80;99.90
3330;DHT22;1677;49.576;10.990;2022-12-24T07:09:50;9.80;99.90
3330;DHT22;1677;49.576;10.990;2022-12-24T07:12:16;9.80;99.90
3330;DHT22;1677;49.576;10.990;2022-12-24T07:14:41;9.70;99.90
3330;DHT22;1677;49.576;10.990;2022-12-24T07:17:07;9.70;99.90
3330;DHT22;1677;49.576;10.990;2022-12-24T07:19:32;9.60;99.90
3330;DHT22;1677;49.576;10.990;2022-12-24T07:21:58;9.70;99.90
3330;DHT22;1677;49.576;10.990;2022-12-24T07:24:24;9.60;99.90
3330;DHT22;1677;49.576;10.990;2022-12-24T07:26:50;9.60;99.90
3330;DHT22;1677;49.576;10.990;2022-12-24T07:29:15;9.70;99.90
3330;DHT22;1677;49.576;10.990;2022-12-24T07:31:41;9.60;99.90
3330;DHT22;1677;49.576;10.990;2022-12-24T07:34:07;9.60;99.90
3330;DHT22;1677;49.576;10.990;2022-12-24T07:36:32;9.60;99.90
3330;DHT22;1677;49.576;10.990;2022-12-24T07:38:58;9.50;99.90
3330;DHT22;1677;49.576;10.990;2022-12-24T07:41:23;9.50;99.90
3330;DHT22;1677;49.576;10.990;2022-12-24T07:43:49;9.60;99.90
3330;DHT22;1677;49.576;10.990;2022-12-24T07:46:15;9.60;99.90
3330;DHT22;1677;49.576;10.990;2022-12-24T07:48:41;9.70;99.90
3330;DHT22;1677;49.576;10.990;2022-12-24T07:51:06;9.70;99.90
3330;DHT22;1677;49.576;10.990;2022-12-24T07:53:32;9.70;99.90
3330;DHT22;1677;49.576;10.990;2022-12-24T07:55:58;9.70;99.90
3330;DHT22;1677;49.576;10.990;2022-12-24T07:58:23;9.70;99.90
3330;DHT22;1677;49.576;10.990;2022-12-24T08:00:58;9.80;99.90
3330;DHT22;1677;49.576;10.990;2022-12-24T08:03:24;10.00;99.90
3330;DHT22;1677;49.576;10.990;2022-12-24T08:05:50;9.90;99.90
3330;DHT22;1677;49.576;10.990;2022-12-24T08:08:17;9.80;99.90
3330;DHT22;1677;49.576;10.990;2022-12-24T08:10:44;9.70;99.90
3330;DHT22;1677;49.576;10.990;2022-12-24T08:13:11;9.70;99.90
3330;DHT22;1677;49.576;10.990;2022-12-24T08:15:37;9.70;99.90
3330;DHT22;1677;49.576;10.990;2022-12-24T08:18:02;9.80;99.90
3330;DHT22;1677;49.576;10.990;2022-12-24T08:20:28;10.00;99.90
3330;DHT22;1677;49.576;10.990;2022-12-24T08:22:54;10.10;99.90
3330;DHT22;1677;49.576;10.990;2022-12-24T08:25:19;10.10;99.90
3330;DHT22;1677;49.576;10.990;2022-12-24T08:27:45;10.20;99.90
3330;DHT22;1677;49.576;10.990;2022-12-24T08:30:11;10.30;99.90
3330;DHT22;1677;49.576;10.990;2022-12-24T08:32:37;10.40;99.90
3330;DHT22;1677;49.576;10.990;2022-12-24T08:35:02;10.60;99.90
3330;DHT22;1677;49.576;10.990;2022-12-24T08:37:28;10.70;99.90
3330;DHT22;1677;49.576;10.990;2022-12-24T08:39:53;10.70;99.90
3330;DHT22;1677;49.576;10.990;2022-12-24T08:42:19;10.80;99.90
3330;DHT22;1677;49.576;10.990;2022-12-24T08:44:45;10.80;99.90
3330;DHT22;1677;49.576;10.990;2022-12-24T08:47:10;10.80;99.90
3330;DHT22;1677;49.576;10.990;2022-12-24T08:49:36;11.00;99.90
3330;DHT22;1677;49.576;10.990;2022-12-24T08:52:01;10.90;99.90
3330;DHT22;1677;49.576;10.990;2022-12-24T08:54:27;11.00;99.90
3330;DHT22;1677;49.576;10.990;2022-12-24T08:56:52;11.20;99.90
3330;DHT22;1677;49.576;10.990;2022-12-24T08:59:18;11.20;99.90
3330;DHT22;1677;49.576;10.990;2022-12-24T09:01:43;10.90;99.90
3330;DHT22;1677;49.576;10.990;2022-12-24T09:04:09;10.80;99.90
3330;DHT22;1677;49.576;10.990;2022-12-24T09:06:35;10.90;99.90
3330;DHT22;1677;49.576;10.990;2022-12-24T09:09:02;10.90;99.90
3330;DHT22;1677;49.576;10.990;2022-12-24T09:11:28;10.90;99.90
3330;DHT22;1677;49.576;10.990;2022-12-24T09:13:54;11.10;99.90
3330;DHT22;1677;49.576;10.990;2022-12-24T09:16:20;11.20;99.90
3330;DHT22;1677;49.576;10.990;2022-12-24T09:18:45;11.30;99.90
3330;DHT22;1677;49.576;10.990;2022-12-24T09:21:14;11.40;99.90
3330;DHT22;1677;49.576;10.990;2022-12-24T09:23:42;11.40;99.90
3330;DHT22;1677;49.576;10.990;2022-12-24T09:26:11;11.60;99.90
3330;DHT22;1677;49.576;10.990;2022-12-24T09:28:37;11.70;99.90
3330;DHT22;1677;49.576;10.990;2022-12-24T09:31:04;11.60;99.90
3330;DHT22;1677;49.576;10.990;2022-12-24T09:33:33;11.60;99.90
3330;DHT22;1677;49.576;10.990;2022-12-24T09:35:59;11.60;99.90
3330;DHT22;1677;49.576;10.990;2022-12-24T09:38:24;11.60;99.90
3330;DHT22;1677;49.576;10.990;2022-12-24T09:40:51;11.50;99.90
3330;DHT22;1677;49.576;10.990;2022-12-24T09:43:20;11.50;99.90
3330;DHT22;1677;49.576;10.990;2022-12-24T09:46:01;11.30;99.90
3330;DHT22;1677;49.576;10.990;2022-12-24T09:48:30;11.10;99.90
3330;DHT22;1677;49.576;10.990;2022-12-24T09:51:07;11.00;99.90
3330;DHT22;1677;49.576;10.990;2022-12-24T09:56:14;10.90;99.90
3330;DHT22;1677;49.576;10.990;2022-12-24T09:58:44;10.80;99.90
3330;DHT22;1677;49.576;10.990;2022-12-24T10:01:13;10.80;99.90
3330;DHT22;1677;49.576;10.990;2022-12-24T10:03:40;10.90;99.90
3330;DHT22;1677;49.576;10.990;2022-12-24T10:06:21;11.00;99.90
3330;DHT22;1677;49.576;10.990;2022-12-24T10:09:19;11.10;99.90
3330;DHT22;1677;49.576;10.990;2022-12-24T10:12:04;11.00;99.90
3330;DHT22;1677;49.576;10.990;2022-12-24T10:20:31;11.50;99.90
3330;DHT22;1677;49.576;10.990;2022-12-24T10:23:34;11.60;99.90
3330;DHT22;1677;49.576;10.990;2022-12-24T10:26:12;11.60;99.90
3330;DHT22;1677;49.576;10.990;2022-12-24T10:28:47;11.70;99.90
3330;DHT22;1677;49.576;10.990;2022-12-24T10:31:18;11.90;99.90
3330;DHT22;1677;49.576;10.990;2022-12-24T10:33:52;11.80;99.90
3330;DHT22;1677;49.576;10.990;2022-12-24T10:36:23;11.90;99.90
3330;DHT22;1677;49.576;10.990;2022-12-24T10:38:51;11.90;99.90
3330;DHT22;1677;49.576;10.990;2022-12-24T10:41:16;12.00;99.90
3330;DHT22;1677;49.576;10.990;2022-12-24T10:43:43;12.00;99.90
3330;DHT22;1677;49.576;10.990;2022-12-24T10:46:17;12.20;99.90
3330;DHT22;1677;49.576;10.990;2022-12-24T10:48:58;12.20;99.90
3330;DHT22;1677;49.576;10.990;2022-12-24T10:54:15;12.60;99.90
3330;DHT22;1677;49.576;10.990;2022-12-24T10:56:46;12.70;99.90
3330;DHT22;1677;49.576;10.990;2022-12-24T10:59:50;12.80;99.90
3330;DHT22;1677;49.576;10.990;2022-12-24T11:02:35;12.90;99.90
3330;DHT22;1677;49.576;10.990;2022-12-24T11:05:05;13.00;99.90
3330;DHT22;1677;49.576;10.990;2022-12-24T11:07:32;13.00;99.90
3330;DHT22;1677;49.576;10.990;2022-12-24T11:10:04;12.90;99.90
3330;DHT22;1677;49.576;10.990;2022-12-24T11:12:39;12.90;99.90
3330;DHT22;1677;49.576;10.990;2022-12-24T11:15:23;12.70;99.90
3330;DHT22;1677;49.576;10.990;2022-12-24T11:17:59;12.50;99.90
3330;DHT22;1677;49.576;10.990;2022-12-24T11:20:30;12.60;99.90
3330;DHT22;1677;49.576;10.990;2022-12-24T11:22:56;12.60;99.90
3330;DHT22;1677;49.576;10.990;2022-12-24T11:25:26;12.40;99.90
3330;DHT22;1677;49.576;10.990;2022-12-24T11:28:24;12.50;99.90
3330;DHT22;1677;49.576;10.990;2022-12-24T11:31:19;12.50;99.90
3330;DHT22;1677;49.576;10.990;2022-12-24T11:33:48;12.70;99.90
3330;DHT22;1677;49.576;10.990;2022-12-24T11:36:16;13.00;99.90
3330;DHT22;1677;49.576;10.990;2022-12-24T11:38:57;13.30;99.90
3330;DHT22;1677;49.576;10.990;2022-12-24T11:41:23;13.40;99.90
3330;DHT22;1677;49.576;10.990;2022-12-24T11:43:56;13.30;99.90
3330;DHT22;1677;49.576;10.990;2022-12-24T11:57:19;12.70;99.90
3330;DHT22;1677;49.576;10.990;2022-12-24T11:59:48;13.00;99.90
3330;DHT22;1677;49.576;10.990;2022-12-24T12:04:49;12.90;99.90
3330;DHT22;1677;49.576;10.990;2022-12-24T12:07:19;12.70;99.90
3330;DHT22;1677;49.576;10.990;2022-12-24T12:09:55;12.60;99.90
3330;DHT22;1677;49.576;10.990;2022-12-24T12:12:25;12.60;99.90
3330;DHT22;1677;49.576;10.990;2022-12-24T12:15:13;12.60;99.90
3330;DHT22;1677;49.576;10.990;2022-12-24T12:21:14;12.60;99.90
3330;DHT22;1677;49.576;10.990;2022-12-24T12:23:48;12.50;99.90
3330;DHT22;1677;49.576;10.990;2022-12-24T12:28:58;12.70;99.90
3330;DHT22;1677;49.576;10.990;2022-12-24T12:31:37;12.70;99.90
3330;DHT22;1677;49.576;10.990;2022-12-24T12:36:48;13.00;99.90
3330;DHT22;1677;49.576;10.990;2022-12-24T12:39:16;12.90;99.90
3330;DHT22;1677;49.576;10.990;2022-12-24T12:41:59;12.80;99.90
3330;DHT22;1677;49.576;10.990;2022-12-24T12:47:40;12.70;99.90
3330;DHT22;1677;49.576;10.990;2022-12-24T12:53:02;12.80;99.90
3330;DHT22;1677;49.576;10.990;2022-12-24T12:55:38;12.90;99.90
3330;DHT22;1677;49.576;10.990;2022-12-24T12:58:29;13.10;99.90
3330;DHT22;1677;49.576;10.990;2022-12-24T13:01:04;13.10;99.90
3330;DHT22;1677;49.576;10.990;2022-12-24T13:09:04;13.60;99.90
3330;DHT22;1677;49.576;10.990;2022-12-24T13:14:50;13.50;99.90
3330;DHT22;1677;49.576;10.990;2022-12-24T13:17:47;13.60;99.90
3330;DHT22;1677;49.576;10.990;2022-12-24T13:20:25;13.60;99.90
3330;DHT22;1677;49.576;10.990;2022-12-24T13:22:59;13.40;99.90
3330;DHT22;1677;49.576;10.990;2022-12-24T13:25:36;13.50;99.90
3330;DHT22;1677;49.576;10.990;2022-12-24T13:28:15;13.50;99.90
3330;DHT22;1677;49.576;10.990;2022-12-24T13:30:41;13.60;99.90
3330;DHT22;1677;49.576;10.990;2022-12-24T13:33:11;13.60;99.90
3330;DHT22;1677;49.576;10.990;2022-12-24T13:35:56;13.70;99.90
3330;DHT22;1677;49.576;10.990;2022-12-24T13:40:51;13.80;99.90
3330;DHT22;1677;49.576;10.990;2022-12-24T13:43:17;13.70;99.90
3330;DHT22;1677;49.576;10.990;2022-12-24T13:45:44;13.60;99.90
3330;DHT22;1677;49.576;10.990;2022-12-24T13:53:01;13.20;99.90
3330;DHT22;1677;49.576;10.990;2022-12-24T13:55:28;13.10;99.90
3330;DHT22;1677;49.576;10.990;2022-12-24T13:58:03;13.10;99.90
3330;DHT22;1677;49.576;10.990;2022-12-24T14:00:50;13.10;99.90
3330;DHT22;1677;49.576;10.990;2022-12-24T14:06:01;13.00;99.90
3330;DHT22;1677;49.576;10.990;2022-12-24T14:08:44;12.80;99.90
3330;DHT22;1677;49.576;10.990;2022-12-24T14:11:20;12.70;99.90
3330;DHT22;1677;49.576;10.990;2022-12-24T14:18:39;12.40;99.90
3330;DHT22;1677;49.576;10.990;2022-12-24T14:21:11;12.40;99.90
3330;DHT22;1677;49.576;10.990;2022-12-24T14:23:54;12.30;99.90
3330;DHT22;1677;49.576;10.990;2022-12-24T14:26:24;12.20;99.90
3330;DHT22;1677;49.576;10.990;2022-12-24T14:28:55;12.00;99.90
3330;DHT22;1677;49.576;10.990;2022-12-24T14:31:22;12.10;99.90
3330;DHT22;1677;49.576;10.990;2022-12-24T14:33:47;12.10;99.90
3330;DHT22;1677;49.576;10.990;2022-12-24T14:36:17;12.00;99.90
3330;DHT22;1677;49.576;10.990;2022-12-24T14:38:44;11.70;99.90
3330;DHT22;1677;49.576;10.990;2022-12-24T14:46:28;11.10;99.90
3330;DHT22;1677;49.576;10.990;2022-12-24T14:49:03;11.00;99.90
3330;DHT22;1677;49.576;10.990;2022-12-24T15:05:07;10.70;99.90
3330;DHT22;1677;49.576;10.990;2022-12-24T15:07:33;10.60;99.90
3330;DHT22;1677;49.576;10.990;2022-12-24T15:10:02;10.50;99.90
3330;DHT22;1677;49.576;10.990;2022-12-24T15:12:30;10.40;99.90
3330;DHT22;1677;49.576;10.990;2022-12-24T15:14:56;10.20;99.90
3330;DHT22;1677;49.576;10.990;2022-12-24T15:17:22;10.10;99.90
3330;DHT22;1677;49.576;10.990;2022-12-24T15:19:49;10.10;99.90
3330;DHT22;1677;49.576;10.990;2022-12-24T15:22:27;10.00;99.90
3330;DHT22;1677;49.576;10.990;2022-12-24T15:24:54;9.90;99.90
3330;DHT22;1677;49.576;10.990;2022-12-24T15:27:25;9.90;99.90
3330;DHT22;1677;49.576;10.990;2022-12-24T15:29:54;9.90;99.90
3330;DHT22;1677;49.576;10.990;2022-12-24T15:32:20;10.10;99.90
3330;DHT22;1677;49.576;10.990;2022-12-24T15:34:54;10.10;99.90
3330;DHT22;1677;49.576;10.990;2022-12-24T15:37:30;10.10;99.90
3330;DHT22;1677;49.576;10.990;2022-12-24T15:40:19;9.90;99.90
3330;DHT22;1677;49.576;10.990;2022-12-24T15:42:45;9.80;99.90
3330;DHT22;1677;49.576;10.990;2022-12-24T15:47:43;9.70;99.90
3330;DHT22;1677;49.576;10.990;2022-12-24T15:52:46;9.60;99.90
3330;DHT22;1677;49.576;10.990;2022-12-24T15:55:26;9.50;99.90
3330;DHT22;1677;49.576;10.990;2022-12-24T15:57:52;9.70;99.90
3330;DHT22;1677;49.576;10.990;2022-12-24T16:00:22;9.90;99.90
3330;DHT22;1677;49.576;10.990;2022-12-24T16:02:48;9.90;99.90
3330;DHT22;1677;49.576;10.990;2022-12-24T16:05:37;9.80;99.90
3330;DHT22;1677;49.576;10.990;2022-12-24T16:10:40;10.20;99.90
3330;DHT22;1677;49.576;10.990;2022-12-24T16:13:28;9.90;99.90
3330;DHT22;1677;49.576;10.990;2022-12-24T16:16:01;9.80;99.90
3330;DHT22;1677;49.576;10.990;2022-12-24T16:18:32;9.70;99.90
3330;DHT22;1677;49.576;10.990;2022-12-24T16:20:58;9.60;99.90
3330;DHT22;1677;49.576;10.990;2022-12-24T16:23:38;9.50;99.90
3330;DHT22;1677;49.576;10.990;2022-12-24T16:26:04;9.30;99.90
3330;DHT22;1677;49.576;10.990;2022-12-24T16:28:31;9.20;99.90
3330;DHT22;1677;49.576;10.990;2022-12-24T16:30:56;9.20;99.90
3330;DHT22;1677;49.576;10.990;2022-12-24T16:33:22;9.40;99.90
3330;DHT22;1677;49.576;10.990;2022-12-24T16:35:49;9.30;99.90
3330;DHT22;1677;49.576;10.990;2022-12-24T16:38:15;9.40;99.90
3330;DHT22;1677;49.576;10.990;2022-12-24T16:40:41;9.70;99.90
3330;DHT22;1677;49.576;10.990;2022-12-24T16:43:07;9.80;99.90
3330;DHT22;1677;49.576;10.990;2022-12-24T16:45:52;9.80;99.90
3330;DHT22;1677;49.576;10.990;2022-12-24T16:48:23;9.90;99.90
3330;DHT22;1677;49.576;10.990;2022-12-24T16:50:50;10.10;99.90
3330;DHT22;1677;49.576;10.990;2022-12-24T16:53:17;9.90;99.90
3330;DHT22;1677;49.576;10.990;2022-12-24T16:55:43;9.90;99.90
3330;DHT22;1677;49.576;10.990;2022-12-24T16:58:11;9.80;99.90
3330;DHT22;1677;49.576;10.990;2022-12-24T17:00:37;9.60;99.90
3330;DHT22;1677;49.576;10.990;2022-12-24T17:03:03;9.60;99.90
3330;DHT22;1677;49.576;10.990;2022-12-24T17:05:29;9.80;99.90
3330;DHT22;1677;49.576;10.990;2022-12-24T17:07:54;9.80;99.90
3330;DHT22;1677;49.576;10.990;2022-12-24T17:10:23;9.50;99.90
3330;DHT22;1677;49.576;10.990;2022-12-24T17:12:48;9.00;99.90
3330;DHT22;1677;49.576;10.990;2022-12-24T17:15:14;8.80;99.90
3330;DHT22;1677;49.576;10.990;2022-12-24T17:17:39;9.00;99.90
3330;DHT22;1677;49.576;10.990;2022-12-24T17:20:05;9.00;99.90
3330;DHT22;1677;49.576;10.990;2022-12-24T17:22:31;9.40;99.90
3330;DHT22;1677;49.576;10.990;2022-12-24T17:24:57;9.40;99.90
3330;DHT22;1677;49.576;10.990;2022-12-24T17:27:22;9.70;99.90
3330;DHT22;1677;49.576;10.990;2022-12-24T17:29:48;9.70;99.90
3330;DHT22;1677;49.576;10.990;2022-12-24T17:32:14;9.40;99.90
3330;DHT22;1677;49.576;10.990;2022-12-24T17:34:40;9.10;99.90
3330;DHT22;1677;49.576;10.990;2022-12-24T17:37:05;8.90;99.90
3330;DHT22;1677;49.576;10.990;2022-12-24T17:39:31;8.90;99.90
3330;DHT22;1677;49.576;10.990;2022-12-24T17:41:56;9.30;99.90
3330;DHT22;1677;49.576;10.990;2022-12-24T17:44:22;9.40;99.90
3330;DHT22;1677;49.576;10.990;2022-12-24T17:46:48;9.70;99.90
3330;DHT22;1677;49.576;10.990;2022-12-24T17:49:13;9.90;99.90
3330;DHT22;1677;49.576;10.990;2022-12-24T17:51:39;9.70;99.90
3330;DHT22;1677;49.576;10.990;2022-12-24T17:54:05;9.60;99.90
3330;DHT22;1677;49.576;10.990;2022-12-24T17:56:30;9.50;99.90
3330;DHT22;1677;49.576;10.990;2022-12-24T17:58:56;9.40;99.90